Terminal Aerodrome Forecast
Issued by NWS

Home | Current Version | Previous Version | Text Only | Print | Product List | Glossary On
Versions: 1 2 3 4 5 6 7 8 9 10 11 12 13 14
000
FTUS45 KRIW 250500
TAFCOD
TAF
KCOD 250538Z 2506/2606 31006KT P6SM VCSH SCT020 OVC050
      TEMPO 2506/2509 -SHRA BKN020
     FM251600 02008KT P6SM VCSH SCT030 BKN060
     FM260200 VRB06KT P6SM SCT050 BKN080
      AMD LTD TO CLD VIS AND WIND=

USA.gov is the U.S. government's official web portal to all federal, state and local government web resources and services.